createdAt,value
2018-02-14T00:01:18.812Z,8.93
2018-02-14T00:03:48.050Z,8.93
2018-02-14T00:06:17.430Z,8.48
2018-02-14T00:08:45.680Z,10.50
2018-02-14T00:11:15.191Z,7.32
2018-02-14T00:13:44.866Z,8.38
2018-02-14T00:16:16.598Z,9.00
2018-02-14T00:18:45.444Z,8.75
2018-02-14T00:21:19.478Z,8.75
2018-02-14T00:23:53.302Z,10.70
2018-02-14T00:26:24.419Z,9.07
2018-02-14T00:28:53.634Z,9.57
2018-02-14T00:31:24.268Z,8.65
2018-02-14T00:33:52.687Z,7.85
2018-02-14T00:36:23.007Z,9.50
2018-02-14T00:38:52.051Z,8.23
2018-02-14T00:41:20.239Z,9.73
2018-02-14T00:43:50.575Z,7.70
2018-02-14T00:46:18.851Z,8.45
2018-02-14T00:48:53.545Z,7.93
2018-02-14T00:51:24.136Z,9.07
2018-02-14T00:53:52.685Z,8.65
2018-02-14T00:56:21.997Z,10.60
2018-02-14T00:58:51.973Z,9.55
2018-02-14T01:01:24.498Z,9.70
2018-02-14T01:03:53.530Z,10.52
2018-02-14T01:06:22.522Z,8.50
2018-02-14T01:08:53.331Z,9.45
2018-02-14T01:11:23.027Z,8.65
2018-02-14T01:13:51.293Z,9.98
2018-02-14T01:16:19.551Z,8.75
2018-02-14T01:18:48.766Z,9.15
2018-02-14T01:21:17.003Z,9.48
2018-02-14T01:23:45.199Z,9.68
2018-02-14T01:26:13.379Z,9.63
2018-02-14T01:28:43.291Z,10.23
2018-02-14T01:31:14.213Z,9.18
2018-02-14T01:33:42.511Z,8.82
2018-02-14T01:36:10.653Z,10.05
2018-02-14T01:38:40.463Z,10.48
2018-02-14T01:41:09.723Z,10.07
2018-02-14T01:43:37.996Z,9.00
2018-02-14T01:46:06.926Z,9.27
2018-02-14T01:48:38.815Z,9.57
2018-02-14T01:51:07.010Z,9.25
2018-02-14T01:53:35.332Z,8.82
2018-02-14T01:56:03.616Z,10.20
2018-02-14T01:58:31.984Z,11.85
2018-02-14T02:01:01.273Z,9.10
2018-02-14T02:03:29.706Z,9.40
2018-02-14T02:06:00.071Z,9.65
2018-02-14T02:08:28.303Z,10.10
2018-02-14T02:10:56.508Z,10.38
2018-02-14T02:13:24.809Z,10.05
2018-02-14T02:15:53.024Z,10.30
2018-02-14T02:18:21.445Z,9.55
2018-02-14T02:20:51.372Z,11.95
2018-02-14T02:23:19.636Z,10.85
2018-02-14T02:25:47.994Z,9.50
2018-02-14T02:28:16.222Z,11.60
2018-02-14T02:30:47.691Z,9.52
2018-02-14T02:33:24.914Z,10.43
2018-02-14T02:35:53.226Z,10.85
2018-02-14T02:38:21.486Z,10.05
2018-02-14T02:40:50.509Z,13.90
2018-02-14T02:43:18.891Z,10.68
2018-02-14T02:45:47.134Z,12.30
2018-02-14T02:48:15.395Z,11.05
2018-02-14T02:50:46.220Z,8.65
2018-02-14T02:53:15.213Z,9.93
2018-02-14T02:55:44.124Z,10.60
2018-02-14T02:58:12.280Z,11.07
2018-02-14T03:00:40.461Z,9.57
2018-02-14T03:03:08.650Z,10.50
2018-02-14T03:05:36.827Z,11.75
2018-02-14T03:08:04.997Z,9.20
2018-02-14T03:10:34.085Z,9.98
2018-02-14T03:13:02.247Z,9.93
2018-02-14T03:15:31.446Z,11.70
2018-02-14T03:17:59.627Z,9.68
2018-02-14T03:20:27.851Z,13.05
2018-02-14T03:22:56.070Z,10.10
2018-02-14T03:25:24.221Z,9.25
2018-02-14T03:27:53.138Z,8.85
2018-02-14T03:30:21.338Z,10.73
2018-02-14T03:32:49.671Z,9.40
2018-02-14T03:35:18.711Z,10.60
2018-02-14T03:37:47.074Z,8.85
2018-02-14T03:40:15.236Z,10.23
2018-02-14T03:42:44.606Z,9.30
2018-02-14T03:45:17.003Z,9.45
2018-02-14T03:47:45.198Z,8.20
2018-02-14T03:50:13.366Z,9.70
2018-02-14T03:52:41.575Z,8.57
2018-02-14T03:55:15.669Z,8.15
2018-02-14T03:57:43.846Z,9.10
2018-02-14T04:00:12.014Z,8.23
2018-02-14T04:02:40.166Z,8.05
2018-02-14T04:05:08.338Z,7.85
2018-02-14T04:07:36.542Z,8.55
2018-02-14T04:10:04.729Z,8.07
2018-02-14T04:12:33.391Z,8.02
2018-02-14T04:15:01.558Z,12.45
2018-02-14T04:17:29.704Z,9.13
2018-02-14T04:19:57.877Z,7.45
2018-02-14T04:22:26.152Z,10.55
2018-02-14T04:24:54.326Z,8.10
2018-02-14T04:27:22.483Z,8.00
2018-02-14T04:29:51.405Z,8.50
2018-02-14T04:32:19.564Z,8.95
2018-02-14T04:34:47.725Z,8.15
2018-02-14T04:37:15.866Z,7.68
2018-02-14T04:39:44.037Z,8.30
2018-02-14T04:42:12.214Z,9.05
2018-02-14T04:44:40.353Z,8.60
2018-02-14T04:47:08.499Z,8.80
2018-02-14T04:49:36.674Z,8.13
2018-02-14T04:52:04.870Z,8.57
2018-02-14T04:54:33.817Z,8.30
2018-02-14T04:57:02.753Z,8.85
2018-02-14T04:59:30.884Z,7.93
2018-02-14T05:01:59.041Z,8.52
2018-02-14T05:04:27.977Z,9.00
2018-02-14T05:06:56.925Z,7.90
2018-02-14T05:09:25.881Z,8.50
2018-02-14T05:11:54.351Z,7.25
2018-02-14T05:14:22.502Z,8.30
2018-02-14T05:16:50.645Z,8.88
2018-02-14T05:19:19.667Z,9.18
2018-02-14T05:21:47.925Z,9.40
2018-02-14T05:24:16.881Z,13.27
2018-02-14T05:26:45.063Z,9.73
2018-02-14T05:29:13.262Z,9.73
2018-02-14T05:31:41.444Z,8.60
2018-02-14T05:34:09.645Z,8.18
2018-02-14T05:39:21.876Z,8.73
2018-02-14T05:41:50.485Z,8.55
2018-02-14T05:44:23.873Z,9.95
2018-02-14T05:47:14.703Z,8.13
2018-02-14T05:49:42.919Z,9.65
2018-02-14T05:52:12.063Z,9.63
2018-02-14T05:55:03.948Z,9.45
2018-02-14T05:57:32.313Z,9.52
2018-02-14T06:00:00.627Z,11.45
2018-02-14T06:02:28.883Z,8.93
2018-02-14T06:04:59.095Z,8.85
2018-02-14T06:07:32.569Z,11.12
2018-02-14T06:10:01.563Z,8.90
2018-02-14T06:12:29.744Z,10.43
2018-02-14T06:14:58.744Z,8.50
2018-02-14T06:17:31.980Z,8.88
2018-02-14T06:20:01.314Z,9.38
2018-02-14T06:22:32.149Z,9.30
2018-02-14T06:28:04.635Z,8.30
2018-02-14T06:31:28.108Z,9.02
2018-02-14T06:34:02.639Z,9.02
2018-02-14T06:36:34.679Z,9.27
2018-02-14T06:39:20.374Z,10.43
2018-02-14T06:41:49.699Z,10.50
2018-02-14T06:44:18.611Z,10.60
2018-02-14T06:50:08.295Z,9.60
2018-02-14T06:52:36.790Z,10.93
2018-02-14T06:55:05.213Z,12.20
2018-02-14T06:57:33.520Z,11.98
2018-02-14T07:00:01.690Z,11.80
2018-02-14T07:02:29.886Z,11.50
2018-02-14T07:05:00.263Z,12.55
2018-02-14T07:07:32.040Z,14.15
2018-02-14T07:10:00.377Z,11.32
2018-02-14T07:12:34.094Z,10.88
2018-02-14T07:15:02.655Z,12.30
2018-02-14T07:17:31.711Z,11.60
2018-02-14T07:19:59.890Z,10.88
2018-02-14T07:22:29.550Z,10.32
2018-02-14T07:24:59.263Z,9.52
2018-02-14T07:27:28.167Z,10.70
2018-02-14T07:29:56.394Z,10.55
2018-02-14T07:32:25.275Z,9.77
2018-02-14T07:34:53.442Z,8.95
2018-02-14T07:37:22.444Z,9.18
2018-02-14T07:39:50.606Z,9.45
2018-02-14T07:42:18.754Z,9.55
2018-02-14T07:44:47.771Z,9.80
2018-02-14T07:47:16.719Z,9.13
2018-02-14T07:49:45.673Z,11.18
2018-02-14T07:52:13.874Z,10.15
2018-02-14T07:54:46.888Z,10.30
2018-02-14T07:57:22.560Z,10.63
2018-02-14T07:59:51.843Z,10.40
2018-02-14T08:02:20.109Z,10.45
2018-02-14T08:04:48.456Z,10.70
2018-02-14T08:07:19.582Z,10.23
2018-02-14T08:09:47.815Z,11.00
2018-02-14T08:12:16.306Z,10.85
2018-02-14T08:14:44.568Z,10.77
2018-02-14T08:17:12.919Z,11.57
2018-02-14T08:19:41.165Z,10.00
2018-02-14T08:22:10.124Z,10.40
2018-02-14T08:24:39.150Z,11.07
2018-02-14T08:27:16.134Z,11.25
2018-02-14T08:29:46.800Z,10.13
2018-02-14T08:32:15.110Z,10.85
2018-02-14T08:37:57.806Z,11.77
2018-02-14T08:40:29.067Z,11.02
2018-02-14T08:43:11.316Z,11.18
2018-02-14T08:45:39.914Z,10.60
2018-02-14T08:48:08.131Z,10.68
2018-02-14T08:50:36.381Z,10.65
2018-02-14T08:56:30.397Z,10.80
2018-02-14T09:02:07.885Z,9.85
2018-02-14T09:08:13.883Z,11.48
2018-02-14T09:20:04.561Z,11.57
2018-02-14T09:22:35.457Z,11.20
2018-02-14T09:25:07.483Z,12.15
2018-02-14T09:27:56.459Z,10.82
2018-02-14T09:30:25.612Z,11.75
2018-02-14T09:49:29.918Z,10.77
2018-02-14T09:51:59.978Z,10.60
2018-02-14T09:54:28.280Z,10.90
2018-02-14T09:56:56.595Z,11.80
2018-02-14T09:59:24.927Z,10.88
2018-02-14T10:01:53.117Z,10.20
2018-02-14T10:04:27.074Z,9.45
2018-02-14T10:06:55.435Z,8.73
2018-02-14T10:09:23.722Z,11.02
2018-02-14T10:11:51.972Z,9.30
2018-02-14T10:14:21.112Z,10.30
2018-02-14T10:16:49.480Z,10.50
2018-02-14T10:19:22.708Z,9.77
2018-02-14T10:21:51.006Z,9.57
2018-02-14T10:24:19.247Z,10.00
2018-02-14T10:26:48.495Z,9.20
2018-02-14T10:29:17.795Z,10.23
2018-02-14T10:31:46.018Z,9.45
2018-02-14T10:34:14.946Z,8.88
2018-02-14T10:36:43.269Z,7.95
2018-02-14T10:39:14.211Z,8.68
2018-02-14T10:41:43.498Z,9.95
2018-02-14T10:44:11.756Z,7.90
2018-02-14T10:46:40.079Z,8.38
2018-02-14T10:49:08.294Z,8.77
2018-02-14T10:51:45.047Z,8.07
2018-02-14T10:54:13.507Z,9.27
2018-02-14T10:56:45.292Z,13.23
2018-02-14T10:59:20.850Z,8.48
2018-02-14T11:01:55.395Z,7.53
2018-02-14T11:04:23.788Z,8.18
2018-02-14T11:06:52.796Z,8.20
2018-02-14T11:09:27.267Z,9.35
2018-02-14T11:11:56.271Z,8.38
2018-02-14T11:14:24.468Z,9.52
2018-02-14T11:17:01.806Z,8.90
2018-02-14T11:19:32.107Z,8.70
2018-02-14T11:22:00.440Z,8.82
2018-02-14T11:24:30.252Z,8.40
2018-02-14T12:16:20.132Z,8.50
2018-02-14T12:18:49.361Z,9.55
2018-02-14T12:21:18.704Z,8.40
2018-02-14T12:23:46.963Z,8.45
2018-02-14T12:26:44.517Z,8.90
2018-02-14T12:29:28.386Z,10.32
2018-02-14T12:31:57.315Z,8.13
2018-02-14T12:37:37.633Z,9.30
2018-02-14T12:40:15.124Z,8.32
2018-02-14T12:42:49.100Z,7.47
2018-02-14T12:45:55.376Z,8.95
2018-02-14T12:48:24.062Z,7.53
2018-02-14T12:51:18.881Z,8.52
2018-02-14T12:53:54.122Z,8.30
2018-02-14T12:56:34.328Z,7.32
2018-02-14T12:59:16.134Z,7.70
2018-02-14T13:01:44.529Z,8.13
2018-02-14T13:04:13.164Z,8.18
2018-02-14T13:07:01.624Z,7.37
2018-02-14T13:09:34.861Z,7.93
2018-02-14T13:12:03.178Z,8.85
2018-02-14T13:14:34.781Z,8.38
2018-02-14T13:17:03.393Z,7.25
2018-02-14T13:19:33.879Z,7.18
2018-02-14T13:22:02.048Z,7.22
2018-02-14T13:24:30.468Z,6.87
2018-02-14T13:27:06.525Z,7.45
2018-02-14T13:29:34.811Z,7.70
2018-02-14T13:32:02.997Z,8.20
2018-02-14T13:37:31.142Z,8.10
2018-02-14T13:40:00.072Z,8.02
2018-02-14T13:42:41.823Z,8.38
2018-02-14T13:56:14.758Z,8.20
2018-02-14T14:04:44.134Z,8.48
2018-02-14T14:07:36.925Z,8.80
2018-02-14T14:45:56.974Z,9.80
2018-02-14T14:55:52.263Z,9.75
2018-02-14T15:01:44.615Z,9.80
2018-02-14T15:04:14.194Z,9.90
2018-02-14T15:22:22.681Z,9.93
2018-02-14T15:28:06.313Z,10.43
2018-02-14T15:33:39.892Z,11.15
2018-02-14T15:39:48.041Z,11.93
2018-02-14T15:46:00.633Z,11.80
2018-02-14T16:13:54.935Z,11.73
2018-02-14T17:10:02.786Z,14.63
2018-02-14T19:00:08.933Z,14.38
2018-02-14T19:06:29.952Z,13.52
2018-02-14T19:09:02.102Z,14.32
2018-02-14T19:11:39.671Z,12.55
2018-02-14T19:14:07.936Z,12.00
2018-02-14T19:16:37.642Z,13.05
2018-02-14T19:22:32.727Z,13.18
2018-02-14T19:28:02.917Z,14.80
2018-02-14T19:33:49.456Z,13.88
2018-02-14T19:36:17.739Z,14.45
2018-02-14T19:41:24.372Z,14.25
2018-02-14T19:43:53.814Z,13.52
2018-02-14T19:46:40.173Z,14.18
2018-02-14T19:49:26.426Z,12.35
2018-02-14T19:51:54.700Z,14.57
2018-02-14T19:54:24.089Z,15.10
2018-02-14T19:56:52.612Z,15.68
2018-02-14T19:59:23.159Z,12.50
2018-02-14T20:01:51.558Z,12.98
2018-02-14T20:04:20.986Z,14.32
2018-02-14T20:06:52.423Z,14.68
2018-02-14T20:09:21.738Z,13.30
2018-02-14T20:11:51.740Z,13.43
2018-02-14T20:14:20.052Z,14.07
2018-02-14T20:16:49.175Z,14.30
2018-02-14T20:19:18.661Z,13.75
2018-02-14T20:21:47.039Z,14.57
2018-02-14T20:24:15.268Z,13.77
2018-02-14T20:26:43.542Z,13.15
2018-02-14T20:29:24.716Z,14.73
2018-02-14T20:31:53.005Z,14.18
2018-02-14T20:34:21.218Z,13.13
2018-02-14T20:36:49.547Z,15.63
2018-02-14T20:39:17.875Z,21.05
2018-02-14T20:41:48.379Z,14.13
2018-02-14T20:44:16.647Z,15.00
2018-02-14T20:46:44.866Z,15.07
2018-02-14T20:49:15.380Z,14.50
2018-02-14T20:51:44.390Z,14.50
2018-02-14T20:54:13.452Z,15.48
2018-02-14T20:56:42.580Z,15.27
2018-02-14T20:59:13.806Z,13.98
2018-02-14T21:01:42.793Z,18.12
2018-02-14T21:04:12.652Z,14.65
2018-02-14T21:06:41.781Z,14.55
2018-02-14T21:09:10.062Z,16.20
2018-02-14T21:11:38.286Z,15.27
2018-02-14T21:14:06.505Z,15.80
2018-02-14T21:16:34.731Z,15.57
2018-02-14T21:19:04.094Z,16.80
2018-02-14T21:21:33.218Z,15.38
2018-02-14T21:24:01.413Z,15.63
2018-02-14T21:26:29.705Z,15.30
2018-02-14T21:28:58.047Z,16.40
2018-02-14T21:31:26.341Z,16.17
2018-02-14T21:33:54.518Z,15.13
2018-02-14T21:36:22.725Z,15.55
2018-02-14T21:38:50.905Z,17.08
2018-02-14T21:41:19.075Z,15.93
2018-02-14T21:43:47.351Z,15.50
2018-02-14T21:46:15.543Z,16.45
2018-02-14T21:48:44.500Z,15.93
2018-02-14T21:51:12.717Z,16.23
2018-02-14T21:53:41.083Z,15.75
2018-02-14T21:56:10.329Z,15.90
2018-02-14T21:58:38.592Z,16.75
2018-02-14T22:01:07.380Z,15.68
2018-02-14T22:03:36.047Z,15.30
2018-02-14T22:06:04.202Z,14.40
2018-02-14T22:08:33.220Z,15.27
2018-02-14T22:11:01.445Z,15.65
2018-02-14T22:13:30.523Z,15.45
2018-02-14T22:15:58.683Z,15.02
2018-02-14T22:18:26.858Z,14.65
2018-02-14T22:20:55.135Z,15.45
2018-02-14T22:23:23.319Z,17.10
2018-02-14T22:25:51.486Z,15.50
2018-02-14T22:28:19.824Z,15.00
2018-02-14T22:30:48.983Z,15.27
2018-02-14T22:33:17.369Z,15.07
2018-02-14T22:35:45.599Z,15.43
2018-02-14T22:38:13.802Z,16.50
2018-02-14T22:40:42.883Z,15.23
2018-02-14T22:43:12.234Z,16.92
2018-02-14T22:45:40.841Z,16.33
2018-02-14T22:48:09.003Z,15.13
2018-02-14T22:50:37.213Z,15.27
2018-02-14T22:53:05.765Z,16.10
2018-02-14T22:55:34.136Z,16.70
2018-02-14T22:58:02.389Z,15.48
2018-02-14T23:00:31.420Z,15.05
2018-02-14T23:03:00.123Z,16.95
2018-02-14T23:05:28.337Z,18.05
2018-02-14T23:07:57.614Z,15.40
2018-02-14T23:10:26.739Z,16.60
2018-02-14T23:12:55.904Z,15.80
2018-02-14T23:15:24.390Z,16.37
2018-02-14T23:17:52.833Z,16.65
2018-02-14T23:20:21.094Z,17.23
2018-02-14T23:22:49.270Z,16.25
2018-02-14T23:25:18.248Z,17.42
2018-02-14T23:27:46.421Z,17.15
2018-02-14T23:30:14.603Z,18.60
2018-02-14T23:32:42.798Z,15.43
2018-02-14T23:35:10.992Z,17.20
2018-02-14T23:37:39.169Z,15.50
2018-02-14T23:40:07.406Z,15.88
2018-02-14T23:42:35.612Z,16.52
2018-02-14T23:45:03.769Z,15.45
2018-02-14T23:47:31.990Z,15.27
2018-02-14T23:50:01.080Z,15.80
2018-02-14T23:52:30.017Z,15.88
2018-02-14T23:54:58.356Z,15.95
2018-02-14T23:57:26.937Z,16.27
2018-02-14T23:59:55.894Z,15.02
